Time;durP1;ratioP1;P1;durP2;ratioP2;P2;SDS_P1;SDS_P2;PMS_P1;PMS_P2;Temp;Humidity;BMP_temperature;BMP_pressure;BME280_temperature;BME280_humidity;BME280_pressure;Samples;Min_cycle;Max_cycle;Signal;HPM_P1;HPM_P2
2022/09/03 00:01:49;;;;;;;;;;;;;;;23.92;44.37;100770.94;5124171;27;20026;-38
2022/09/03 00:04:17;;;;;;;;;;;;;;;23.92;45.42;100770.94;5140881;27;19930;-39
2022/09/03 00:06:54;;;;;;;;;;;;;;;23.91;45.19;100775.69;5137878;27;19932;-38
2022/09/03 00:09:36;;;;;;;;;;;;;;;23.91;45.13;100772.09;5138805;27;20388;-38
2022/09/03 00:12:07;;;;;;;;;;;;;;;23.90;45.81;100765.72;5133388;27;20030;-38
2022/09/03 00:14:41;;;;;;;;;;;;;;;23.91;44.67;100760.97;5115786;27;20001;-38
2022/09/03 00:17:09;;;;;;;;;;;;;;;23.92;45.00;100765.38;5118666;27;20393;-38
2022/09/03 00:19:36;;;;;;;;;;;;;;;23.91;45.48;100758.19;5139532;27;19989;-38
2022/09/03 00:22:02;;;;;;;;;;;;;;;23.91;45.87;100756.22;5138235;27;20372;-38
2022/09/03 00:24:30;;;;;;;;;;;;;;;23.90;45.65;100762.13;5135285;27;20424;-38
2022/09/03 00:26:56;;;;;;;;;;;;;;;23.90;44.66;100760.16;5143813;27;19976;-38
2022/09/03 00:29:24;;;;;;;;;;;;;;;23.91;45.55;100759.00;5137255;27;19978;-38
2022/09/03 00:31:52;;;;;;;;;;;;;;;23.90;45.46;100756.56;5116953;27;19978;-38
2022/09/03 00:34:20;;;;;;;;;;;;;;;23.89;45.31;100758.53;5123724;27;20010;-38
2022/09/03 00:36:46;;;;;;;;;;;;;;;23.90;45.88;100762.13;5132464;27;20016;-39
2022/09/03 00:39:14;;;;;;;;;;;;;;;23.90;45.14;100760.16;5139112;27;19923;-38
2022/09/03 00:41:45;;;;;;;;;;;;;;;23.90;44.55;100760.16;5141823;27;19954;-38
2022/09/03 00:44:31;;;;;;;;;;;;;;;23.89;45.52;100752.97;5135467;27;20016;-38
2022/09/03 00:47:03;;;;;;;;;;;;;;;23.90;44.91;100765.72;5113004;27;19969;-38
2022/09/03 00:52:33;;;;;;;;;;;;;;;23.91;44.87;100767.34;5169379;27;20006;-39
2022/09/03 00:55:10;;;;;;;;;;;;;;;23.90;44.88;100760.16;5151009;27;20011;-38
2022/09/03 00:57:40;;;;;;;;;;;;;;;23.90;45.26;100759.34;5168722;27;20434;-38
2022/09/03 01:00:10;;;;;;;;;;;;;;;23.90;44.75;100757.38;5146010;27;19981;-38
2022/09/03 01:02:45;;;;;;;;;;;;;;;23.91;44.37;100763.75;5150323;27;19977;-38
2022/09/03 01:05:33;;;;;;;;;;;;;;;23.90;45.65;100759.34;5167137;27;19931;-38
2022/09/03 01:08:19;;;;;;;;;;;;;;;23.89;44.79;100758.53;5150559;27;20026;-38
2022/09/03 01:11:05;;;;;;;;;;;;;;;23.90;45.00;100756.56;5150996;27;19961;-38
2022/09/03 01:13:40;;;;;;;;;;;;;;;23.90;44.76;100760.16;5154175;27;19966;-38
2022/09/03 01:16:25;;;;;;;;;;;;;;;23.90;45.83;100751.00;5165762;27;20026;-38
2022/09/03 01:19:11;;;;;;;;;;;;;;;23.90;45.17;100754.59;5149385;27;20348;-38
2022/09/03 01:21:42;;;;;;;;;;;;;;;23.90;44.83;100762.13;5151121;27;19943;-38
2022/09/03 01:24:13;;;;;;;;;;;;;;;23.90;44.52;100760.16;5166395;27;19971;-38
2022/09/03 01:26:44;;;;;;;;;;;;;;;23.90;44.46;100754.59;5167035;27;20007;-38
2022/09/03 01:29:30;;;;;;;;;;;;;;;23.89;45.91;100747.41;5161576;27;19993;-38
2022/09/03 01:31:59;;;;;;;;;;;;;;;23.89;45.35;100758.53;5151914;27;20021;-38
2022/09/03 01:34:32;;;;;;;;;;;;;;;23.88;45.60;100751.31;5168410;27;20064;-38
2022/09/03 01:37:05;;;;;;;;;;;;;;;23.89;44.95;100758.53;5166308;27;19974;-38
2022/09/03 01:39:50;;;;;;;;;;;;;;;23.90;44.67;100751.00;5164975;27;20051;-38
2022/09/03 01:42:19;;;;;;;;;;;;;;;23.91;44.89;100753.44;5151891;27;20305;-38
2022/09/03 01:44:51;;;;;;;;;;;;;;;23.89;45.75;100749.38;5153782;27;19942;-39
2022/09/03 01:47:21;;;;;;;;;;;;;;;23.89;44.96;100750.19;5153971;27;20443;-38
2022/09/03 01:50:02;;;;;;;;;;;;;;;23.89;45.49;100747.41;5159146;27;19970;-38
2022/09/03 01:52:34;;;;;;;;;;;;;;;23.90;44.40;100756.56;5139922;27;19970;-38
2022/09/03 01:55:04;;;;;;;;;;;;;;;23.88;45.57;100754.09;5152905;27;20389;-38
2022/09/03 01:57:46;;;;;;;;;;;;;;;23.89;45.35;100752.97;5150925;27;19967;-40
2022/09/03 02:00:14;;;;;;;;;;;;;;;23.88;45.50;100751.31;5152915;27;19971;-38
2022/09/03 02:02:40;;;;;;;;;;;;;;;23.88;45.31;100751.31;5126563;27;20349;-38
2022/09/03 02:05:08;;;;;;;;;;;;;;;23.88;45.93;100753.28;5135035;27;19930;-38
2022/09/03 02:07:36;;;;;;;;;;;;;;;23.88;45.87;100756.88;5121119;27;20050;-38
2022/09/03 02:10:03;;;;;;;;;;;;;;;23.88;45.40;100764.41;5142449;27;20074;-38
2022/09/03 02:12:32;;;;;;;;;;;;;;;23.88;45.13;100761.63;5122067;27;19930;-39
2022/09/03 02:14:58;;;;;;;;;;;;;;;23.88;44.68;100759.66;5136013;27;20470;-38
2022/09/03 02:17:24;;;;;;;;;;;;;;;23.89;44.78;100757.69;5142285;27;19977;-38
2022/09/03 02:19:49;;;;;;;;;;;;;;;23.88;45.71;100756.88;5141025;27;20277;-38
2022/09/03 02:22:15;;;;;;;;;;;;;;;23.89;45.16;100754.91;5137456;27;19931;-38
2022/09/03 02:24:41;;;;;;;;;;;;;;;23.87;44.42;100749.66;5135845;27;19942;-38
2022/09/03 02:27:06;;;;;;;;;;;;;;;23.88;46.04;100747.72;5137514;27;19931;-38
2022/09/03 02:29:32;;;;;;;;;;;;;;;23.88;45.44;100750.50;5138540;27;19930;-38
2022/09/03 02:31:57;;;;;;;;;;;;;;;23.89;44.59;100744.63;5138778;27;20285;-38
2022/09/03 02:34:23;;;;;;;;;;;;;;;23.88;44.52;100748.53;5144871;27;19977;-39
2022/09/03 02:36:48;;;;;;;;;;;;;;;23.89;44.81;100752.16;5138563;27;19927;-38
2022/09/03 02:39:15;;;;;;;;;;;;;;;23.88;45.97;100747.72;5137578;27;19927;-38
2022/09/03 02:41:40;;;;;;;;;;;;;;;23.87;45.49;100749.66;5138928;27;19975;-38
2022/09/03 02:44:25;;;;;;;;;;;;;;;23.88;45.57;100744.94;5140690;27;19931;-38
2022/09/03 02:46:53;;;;;;;;;;;;;;;23.87;46.07;100749.66;5116492;27;19930;-38
2022/09/03 02:49:18;;;;;;;;;;;;;;;23.85;45.55;100743.59;5140239;27;19974;-38
2022/09/03 02:51:44;;;;;;;;;;;;;;;23.87;45.32;100749.66;5143186;27;19927;-38
2022/09/03 02:54:10;;;;;;;;;;;;;;;23.87;45.56;100749.66;5138187;27;19982;-38
2022/09/03 02:56:36;;;;;;;;;;;;;;;23.87;46.07;100746.06;5142984;27;19980;-38
2022/09/03 02:59:02;;;;;;;;;;;;;;;23.87;45.17;100748.84;5124808;27;19934;-38
2022/09/03 03:01:28;;;;;;;;;;;;;;;23.87;45.79;100746.88;5121507;27;19982;-38
2022/09/03 03:03:57;;;;;;;;;;;;;;;23.87;45.56;100749.66;5140225;27;19930;-38
2022/09/03 03:06:23;;;;;;;;;;;;;;;23.86;45.78;100748.03;5138176;27;19923;-38
2022/09/03 03:08:49;;;;;;;;;;;;;;;23.86;46.08;100745.25;5136403;27;19923;-39
2022/09/03 03:11:17;;;;;;;;;;;;;;;23.87;45.03;100740.50;5140210;27;19932;-38
2022/09/03 03:13:43;;;;;;;;;;;;;;;23.87;45.41;100740.50;5135461;27;19973;-38
2022/09/03 03:16:09;;;;;;;;;;;;;;;23.86;45.82;100742.47;5116253;27;21612;-38
2022/09/03 03:18:34;;;;;;;;;;;;;;;23.86;45.52;100750.81;5142626;27;19927;-38
2022/09/03 03:21:04;;;;;;;;;;;;;;;23.85;46.15;100737.22;5135726;27;19924;-38
2022/09/03 03:23:31;;;;;;;;;;;;;;;23.86;45.75;100728.56;5136002;27;19970;-38
2022/09/03 03:25:59;;;;;;;;;;;;;;;23.87;45.33;100738.53;5140637;27;19969;-38
2022/09/03 03:28:25;;;;;;;;;;;;;;;23.86;46.15;100733.31;5139168;27;20051;-38
2022/09/03 03:30:51;;;;;;;;;;;;;;;23.86;45.57;100736.09;5137023;27;20366;-39
2022/09/03 03:33:17;;;;;;;;;;;;;;;23.86;45.26;100722.19;5141405;27;19929;-38
2022/09/03 03:35:42;;;;;;;;;;;;;;;23.86;45.66;100723.00;5143541;27;19923;-39
2022/09/03 03:38:08;;;;;;;;;;;;;;;23.87;45.09;100726.59;5135154;27;20277;-38
2022/09/03 03:40:34;;;;;;;;;;;;;;;23.86;45.57;100731.34;5120642;27;19927;-38
2022/09/03 03:42:59;;;;;;;;;;;;;;;23.86;45.73;100736.09;5132529;27;19923;-38
2022/09/03 03:45:25;;;;;;;;;;;;;;;23.85;45.18;100732.47;5131975;27;19930;-38
2022/09/03 03:47:51;;;;;;;;;;;;;;;23.86;45.20;100730.53;5131995;27;20526;-38
2022/09/03 03:50:17;;;;;;;;;;;;;;;23.86;45.59;100728.56;5145146;27;19981;-38
2022/09/03 03:52:42;;;;;;;;;;;;;;;23.87;45.46;100723.81;5131633;27;19923;-38
2022/09/03 03:55:08;;;;;;;;;;;;;;;23.86;46.04;100731.34;5142022;27;19924;-38
2022/09/03 03:57:33;;;;;;;;;;;;;;;23.85;45.25;100723.31;5139644;27;19931;-39
2022/09/03 03:59:59;;;;;;;;;;;;;;;23.86;44.87;100727.75;5137398;27;19923;-38
2022/09/03 04:02:24;;;;;;;;;;;;;;;23.86;45.01;100725.78;5140954;27;19927;-38
2022/09/03 04:04:50;;;;;;;;;;;;;;;23.87;44.86;100723.81;5148151;27;20265;-38
2022/09/03 04:07:16;;;;;;;;;;;;;;;23.86;44.53;100723.00;5133126;27;19931;-38
2022/09/03 04:09:41;;;;;;;;;;;;;;;23.87;44.42;100721.03;5138483;27;19931;-38
2022/09/03 04:12:07;;;;;;;;;;;;;;;23.86;44.89;100720.22;5138295;27;20357;-38
2022/09/03 04:14:34;;;;;;;;;;;;;;;23.87;44.96;100721.03;5134988;27;19931;-39
2022/09/03 04:17:00;;;;;;;;;;;;;;;23.86;44.61;100723.00;5122283;27;20001;-39
2022/09/03 04:19:27;;;;;;;;;;;;;;;23.85;45.34;100724.13;5138513;27;19923;-38
2022/09/03 04:21:52;;;;;;;;;;;;;;;23.86;44.69;100723.00;5137114;27;20385;-38
2022/09/03 04:24:18;;;;;;;;;;;;;;;23.86;44.96;100714.66;5134101;27;19930;-38
2022/09/03 04:26:44;;;;;;;;;;;;;;;23.86;44.59;100711.06;5146200;27;20345;-38
2022/09/03 04:29:09;;;;;;;;;;;;;;;23.87;45.30;100712.69;5139579;27;19931;-38
2022/09/03 04:31:35;;;;;;;;;;;;;;;23.87;44.53;100709.91;5136502;27;19927;-38
2022/09/03 04:34:01;;;;;;;;;;;;;;;23.86;45.58;100711.06;5137576;27;20069;-38
2022/09/03 04:36:27;;;;;;;;;;;;;;;23.86;44.47;100711.06;5140113;27;19927;-38
2022/09/03 04:38:53;;;;;;;;;;;;;;;23.86;44.72;100708.28;5133593;27;19985;-38
2022/09/03 04:41:20;;;;;;;;;;;;;;;23.86;44.49;100711.88;5135931;27;19923;-38
2022/09/03 04:43:47;;;;;;;;;;;;;;;23.86;44.49;100722.19;5134287;27;19966;-38
2022/09/03 04:46:17;;;;;;;;;;;;;;;23.87;44.49;100718.25;5132640;27;20270;-38
2022/09/03 04:48:46;;;;;;;;;;;;;;;23.86;45.37;100719.41;5134235;27;19923;-38
2022/09/03 04:51:13;;;;;;;;;;;;;;;23.85;44.97;100718.56;5116149;27;20014;-38
2022/09/03 04:53:40;;;;;;;;;;;;;;;23.84;45.87;100716.94;5145647;27;19957;-38
2022/09/03 04:56:14;;;;;;;;;;;;;;;23.85;45.40;100723.31;5138661;27;19931;-38
2022/09/03 04:58:40;;;;;;;;;;;;;;;23.86;44.86;100722.19;5137943;27;19978;-38
2022/09/03 05:01:11;;;;;;;;;;;;;;;23.85;45.16;100728.88;5121053;27;19923;-38
2022/09/03 05:03:37;;;;;;;;;;;;;;;23.85;45.34;100724.13;5133309;27;19923;-38
2022/09/03 05:06:04;;;;;;;;;;;;;;;23.85;44.66;100724.13;5139022;27;20026;-38
2022/09/03 05:08:36;;;;;;;;;;;;;;;23.87;45.10;100723.81;5130921;27;20013;-38
2022/09/03 05:11:02;;;;;;;;;;;;;;;23.85;45.59;100721.34;5135493;27;20030;-38
2022/09/03 05:13:27;;;;;;;;;;;;;;;23.85;45.52;100718.56;5122535;27;19977;-38
2022/09/03 05:16:00;;;;;;;;;;;;;;;23.84;45.59;100716.94;5134028;27;19932;-38
2022/09/03 05:18:26;;;;;;;;;;;;;;;23.87;44.67;100718.25;5133779;27;19924;-38
2022/09/03 05:20:59;;;;;;;;;;;;;;;23.85;45.76;100717.75;5134880;27;19970;-38
2022/09/03 05:23:25;;;;;;;;;;;;;;;23.84;45.17;100716.94;5121937;27;20439;-38
2022/09/03 05:25:59;;;;;;;;;;;;;;;23.85;45.21;100724.13;5142401;27;19958;-38
2022/09/03 05:28:26;;;;;;;;;;;;;;;23.85;44.88;100726.09;5136879;27;19981;-38
2022/09/03 05:31:01;;;;;;;;;;;;;;;23.84;44.99;100725.28;5138499;27;20369;-38
2022/09/03 05:33:27;;;;;;;;;;;;;;;23.84;44.66;100719.72;5139165;27;19955;-38
2022/09/03 05:35:53;;;;;;;;;;;;;;;23.84;45.37;100718.91;5137686;27;19941;-38
2022/09/03 05:38:18;;;;;;;;;;;;;;;23.85;45.71;100724.13;5136292;27;20006;-38
2022/09/03 05:40:44;;;;;;;;;;;;;;;23.84;44.78;100722.50;5139937;27;19930;-38
2022/09/03 05:43:10;;;;;;;;;;;;;;;23.83;45.32;100720.84;5141637;27;20014;-38
2022/09/03 05:45:35;;;;;;;;;;;;;;;23.84;46.26;100721.69;5135266;27;19923;-38
2022/09/03 05:48:01;;;;;;;;;;;;;;;23.83;45.16;100720.84;5137827;27;19942;-38
2022/09/03 05:50:27;;;;;;;;;;;;;;;23.83;45.44;100714.47;5122084;27;19923;-38
2022/09/03 05:52:52;;;;;;;;;;;;;;;23.84;45.99;100725.28;5121540;27;19923;-38
2022/09/03 05:55:18;;;;;;;;;;;;;;;23.84;45.11;100718.91;5140476;27;19923;-38
2022/09/03 05:57:45;;;;;;;;;;;;;;;23.83;46.28;100725.59;5139955;27;19923;-38
2022/09/03 06:00:11;;;;;;;;;;;;;;;23.83;45.29;100729.19;5140745;27;20011;-38
2022/09/03 06:02:36;;;;;;;;;;;;;;;23.83;45.72;100731.97;5139803;27;20046;-38
2022/09/03 06:05:02;;;;;;;;;;;;;;;23.82;44.73;100735.88;5141390;27;20385;-38
2022/09/03 06:07:28;;;;;;;;;;;;;;;23.84;44.67;100733.63;5137849;27;19938;-38
2022/09/03 06:09:53;;;;;;;;;;;;;;;23.84;44.68;100727.25;5141094;27;20374;-38
2022/09/03 06:12:19;;;;;;;;;;;;;;;23.83;45.81;100728.38;5136029;27;19924;-38
2022/09/03 06:14:44;;;;;;;;;;;;;;;23.83;45.69;100728.38;5136729;27;20764;-38
2022/09/03 06:17:11;;;;;;;;;;;;;;;23.83;45.43;100734.75;5134506;27;19957;-39
2022/09/03 06:19:37;;;;;;;;;;;;;;;23.83;45.81;100734.75;5131906;27;19978;-38
2022/09/03 06:22:02;;;;;;;;;;;;;;;23.82;46.42;100735.88;5142374;27;19932;-38
2022/09/03 06:24:28;;;;;;;;;;;;;;;23.82;44.92;100735.06;5142952;27;19923;-38
2022/09/03 06:26:55;;;;;;;;;;;;;;;23.83;45.50;100731.16;5136867;27;20376;-38
2022/09/03 06:29:20;;;;;;;;;;;;;;;23.81;46.19;100731.47;5114362;27;20285;-38
2022/09/03 06:31:47;;;;;;;;;;;;;;;23.81;45.78;100723.13;5139692;27;19924;-38
2022/09/03 06:34:13;;;;;;;;;;;;;;;23.82;45.53;100732.28;5141716;27;19924;-38
2022/09/03 06:36:40;;;;;;;;;;;;;;;23.83;44.91;100733.94;5141600;27;19966;-38
2022/09/03 06:39:05;;;;;;;;;;;;;;;23.83;44.84;100734.75;5137529;27;19966;-38
2022/09/03 06:41:32;;;;;;;;;;;;;;;23.82;45.00;100735.88;5142678;27;19923;-38
2022/09/03 06:44:02;;;;;;;;;;;;;;;23.81;46.17;100725.91;5133116;27;19931;-38
2022/09/03 06:46:28;;;;;;;;;;;;;;;23.81;44.77;100733.44;5134065;27;20029;-38
2022/09/03 06:48:54;;;;;;;;;;;;;;;23.82;45.89;100732.28;5143929;27;19954;-38
2022/09/03 06:51:20;;;;;;;;;;;;;;;23.83;45.34;100739.50;5139195;27;19970;-38
2022/09/03 06:53:48;;;;;;;;;;;;;;;23.83;45.25;100731.16;5132537;27;19959;-38
2022/09/03 06:56:16;;;;;;;;;;;;;;;23.81;46.36;100728.69;5122944;27;20023;-38
2022/09/03 06:58:43;;;;;;;;;;;;;;;23.81;45.88;100731.47;5124041;27;19985;-38
2022/09/03 07:01:16;;;;;;;;;;;;;;;23.81;46.30;100731.47;5141755;27;19970;-38
2022/09/03 07:03:43;;;;;;;;;;;;;;;23.81;44.93;100733.44;5118152;27;19927;-38
2022/09/03 07:06:09;;;;;;;;;;;;;;;23.81;44.83;100733.44;5120834;27;20004;-38
2022/09/03 07:08:35;;;;;;;;;;;;;;;23.81;45.64;100727.88;5134585;27;19955;-39
2022/09/03 07:11:04;;;;;;;;;;;;;;;23.82;46.32;100740.63;5136541;27;19969;-38
2022/09/03 07:13:29;;;;;;;;;;;;;;;23.81;44.77;100736.22;5142712;27;20434;-38
2022/09/03 07:16:03;;;;;;;;;;;;;;;23.82;44.61;100735.88;5137212;27;20002;-38
2022/09/03 07:18:29;;;;;;;;;;;;;;;23.81;46.08;100731.47;5120056;27;19965;-38
2022/09/03 07:20:57;;;;;;;;;;;;;;;23.83;45.86;100742.25;5147448;27;19971;-38
2022/09/03 07:23:22;;;;;;;;;;;;;;;23.83;44.65;100742.25;5144033;27;19985;-38
2022/09/03 07:25:52;;;;;;;;;;;;;;;23.81;44.84;100747.34;5141401;27;19927;-38
2022/09/03 07:28:17;;;;;;;;;;;;;;;23.81;44.66;100745.38;5140413;27;20424;-38
2022/09/03 07:30:43;;;;;;;;;;;;;;;23.81;45.22;100748.16;5139472;27;19923;-38
2022/09/03 07:33:08;;;;;;;;;;;;;;;23.81;45.95;100744.56;5137312;27;20514;-38
2022/09/03 07:35:35;;;;;;;;;;;;;;;23.80;45.25;100740.97;5141536;27;19951;-38
2022/09/03 07:38:00;;;;;;;;;;;;;;;23.81;44.69;100745.38;5137729;27;20448;-38
2022/09/03 07:40:26;;;;;;;;;;;;;;;23.81;45.94;100744.56;5135771;27;19986;-38
2022/09/03 07:43:00;;;;;;;;;;;;;;;23.80;46.35;100743.75;5138537;27;19923;-39
2022/09/03 07:45:28;;;;;;;;;;;;;;;23.81;45.06;100741.78;5138314;27;20358;-38
2022/09/03 07:47:53;;;;;;;;;;;;;;;23.81;44.84;100745.38;5136705;27;20022;-38
2022/09/03 07:50:19;;;;;;;;;;;;;;;23.80;46.39;100746.53;5138263;27;19923;-38
2022/09/03 07:52:46;;;;;;;;;;;;;;;23.81;45.49;100742.59;5137704;27;19924;-39
2022/09/03 07:55:12;;;;;;;;;;;;;;;23.80;45.51;100740.97;5142317;27;19993;-38
2022/09/03 07:57:38;;;;;;;;;;;;;;;23.79;45.82;100739.28;5134807;27;20023;-38
2022/09/03 08:00:05;;;;;;;;;;;;;;;23.78;46.28;100746.81;5134015;27;19931;-38
2022/09/03 08:02:31;;;;;;;;;;;;;;;23.80;45.86;100748.47;5138025;27;20035;-38
2022/09/03 08:04:56;;;;;;;;;;;;;;;23.80;46.55;100742.91;5143141;27;19965;-38
2022/09/03 08:07:22;;;;;;;;;;;;;;;23.78;46.54;100746.81;5138400;27;19923;-38
2022/09/03 08:09:48;;;;;;;;;;;;;;;23.78;46.53;100752.38;5137640;27;19980;-38
2022/09/03 08:12:14;;;;;;;;;;;;;;;23.80;46.48;100754.03;5136359;27;20037;-38
2022/09/03 08:14:39;;;;;;;;;;;;;;;23.78;45.19;100754.34;5135319;27;19927;-38
2022/09/03 08:17:06;;;;;;;;;;;;;;;23.79;46.22;100758.75;5139755;27;19930;-38
2022/09/03 08:19:32;;;;;;;;;;;;;;;23.78;46.56;100760.72;5138679;27;19967;-38
2022/09/03 08:21:58;;;;;;;;;;;;;;;23.80;45.87;100754.03;5137240;27;19924;-38
2022/09/03 08:24:25;;;;;;;;;;;;;;;23.80;45.83;100759.59;5135350;27;20030;-38
2022/09/03 08:26:50;;;;;;;;;;;;;;;23.80;45.94;100759.59;5134331;27;19970;-38
2022/09/03 08:29:18;;;;;;;;;;;;;;;23.79;46.52;100761.53;5132181;27;19923;-38
2022/09/03 08:31:43;;;;;;;;;;;;;;;23.80;46.26;100765.16;5137286;27;20128;-38
2022/09/03 08:34:10;;;;;;;;;;;;;;;23.78;46.52;100763.50;5131145;27;19938;-38
2022/09/03 08:36:36;;;;;;;;;;;;;;;23.79;45.84;100758.75;5134803;27;19963;-38
2022/09/03 08:39:03;;;;;;;;;;;;;;;23.78;46.56;100760.72;5136986;27;20346;-38
2022/09/03 08:41:32;;;;;;;;;;;;;;;23.78;46.50;100760.72;5135884;27;20372;-38
2022/09/03 08:44:05;;;;;;;;;;;;;;;23.78;45.83;100757.13;5134383;27;19981;-38
2022/09/03 08:46:33;;;;;;;;;;;;;;;23.79;46.45;100755.97;5132750;27;20021;-38
2022/09/03 08:48:58;;;;;;;;;;;;;;;23.77;45.80;100753.53;5121082;27;19963;-38
2022/09/03 08:51:26;;;;;;;;;;;;;;;23.78;45.63;100757.94;5108832;27;19927;-38
2022/09/03 08:53:54;;;;;;;;;;;;;;;23.79;45.91;100764.31;5129574;27;20220;-38
2022/09/03 08:56:23;;;;;;;;;;;;;;;23.78;46.50;100769.06;5112982;27;19962;-38
2022/09/03 08:58:48;;;;;;;;;;;;;;;23.78;46.45;100768.25;5115169;27;20018;-39
2022/09/03 09:01:21;;;;;;;;;;;;;;;23.80;45.47;100765.16;5132041;27;19923;-38
2022/09/03 09:03:52;;;;;;;;;;;;;;;23.79;46.00;100764.31;5134546;27;19923;-38
2022/09/03 09:06:19;;;;;;;;;;;;;;;23.79;45.51;100764.31;5133300;27;19959;-38
2022/09/03 09:09:02;;;;;;;;;;;;;;;23.78;46.24;100759.91;5131114;27;20027;-38
2022/09/03 09:14:12;;;;;;;;;;;;;;;23.77;46.28;100764.66;5168695;27;20350;-38
2022/09/03 09:16:43;;;;;;;;;;;;;;;23.77;46.11;100761.06;5163910;27;20360;-38
2022/09/03 09:19:27;;;;;;;;;;;;;;;23.78;45.03;100769.06;5162988;27;20014;-38
2022/09/03 09:22:12;;;;;;;;;;;;;;;23.78;45.67;100759.91;5168728;27;19981;-38
2022/09/03 09:24:40;;;;;;;;;;;;;;;23.77;46.63;100756.31;5149840;27;20006;-38
2022/09/03 09:27:05;;;;;;;;;;;;;;;23.77;46.61;100747.16;5167972;27;20006;-38
2022/09/03 09:29:31;;;;;;;;;;;;;;;23.78;45.58;100754.34;5167359;27;20004;-38
2022/09/03 09:31:57;;;;;;;;;;;;;;;23.76;46.44;100754.66;5146020;27;19969;-38
2022/09/03 09:34:23;;;;;;;;;;;;;;;23.77;46.54;100761.06;5167840;27;19923;-38
2022/09/03 09:36:49;;;;;;;;;;;;;;;23.77;46.67;100756.31;5146825;27;19975;-38
2022/09/03 09:39:15;;;;;;;;;;;;;;;23.77;46.73;100764.66;5147503;27;20002;-38
2022/09/03 09:41:42;;;;;;;;;;;;;;;23.77;46.57;100759.09;5166871;27;19927;-38
2022/09/03 09:44:16;;;;;;;;;;;;;;;23.77;46.37;100766.59;5163889;27;19966;-38
2022/09/03 09:46:43;;;;;;;;;;;;;;;23.78;46.57;100759.91;5165191;27;20063;-38
2022/09/03 09:49:29;;;;;;;;;;;;;;;23.77;46.48;100767.44;5166083;27;19931;-38
2022/09/03 09:52:14;;;;;;;;;;;;;;;23.78;46.48;100769.06;5149580;27;19970;-38
2022/09/03 09:54:40;;;;;;;;;;;;;;;23.78;46.54;100768.25;5150309;27;21120;-38
2022/09/03 09:57:07;;;;;;;;;;;;;;;23.77;46.22;100773.00;5166631;27;19979;-38
2022/09/03 09:59:33;;;;;;;;;;;;;;;23.78;45.41;100768.25;5166647;27;19974;-38
2022/09/03 10:02:06;;;;;;;;;;;;;;;23.77;46.60;100773.00;5164454;27;20337;-38
2022/09/03 10:04:31;;;;;;;;;;;;;;;23.76;46.42;100768.56;5159227;27;19966;-38
2022/09/03 10:07:03;;;;;;;;;;;;;;;23.77;46.53;100770.22;5163020;27;20369;-38
2022/09/03 10:09:29;;;;;;;;;;;;;;;23.77;46.63;100763.84;5147698;27;19923;-38
2022/09/03 10:12:18;;;;;;;;;;;;;;;23.76;46.30;100763.00;5166303;27;20370;-39
2022/09/03 10:15:03;;;;;;;;;;;;;;;23.76;46.64;100770.53;5149991;27;20041;-38
2022/09/03 10:17:33;;;;;;;;;;;;;;;23.76;46.56;100776.91;5148932;27;20010;-38
2022/09/03 10:20:29;;;;;;;;;;;;;;;23.76;46.69;100778.88;5165281;27;20402;-38
2022/09/03 10:22:58;;;;;;;;;;;;;;;23.77;45.20;100774.94;5148006;27;20010;-38
2022/09/03 10:25:25;;;;;;;;;;;;;;;23.77;44.86;100775.78;5150967;27;19970;-38
2022/09/03 10:27:54;;;;;;;;;;;;;;;23.77;45.76;100774.94;5147126;27;19984;-38
2022/09/03 10:30:19;;;;;;;;;;;;;;;23.76;45.50;100771.34;5151140;27;19967;-38
2022/09/03 10:32:50;;;;;;;;;;;;;;;23.76;46.61;100776.91;5150769;27;20375;-38
2022/09/03 10:35:22;;;;;;;;;;;;;;;23.76;45.96;100767.75;5152141;27;19970;-38
2022/09/03 10:37:50;;;;;;;;;;;;;;;23.75;46.66;100766.94;5131895;27;20002;-38
2022/09/03 10:40:35;;;;;;;;;;;;;;;23.76;46.41;100784.44;5143823;27;20035;-38
2022/09/03 10:43:22;;;;;;;;;;;;;;;23.76;46.66;100773.31;5135874;27;20555;-39
2022/09/03 10:45:55;;;;;;;;;;;;;;;23.76;46.64;100781.66;5134496;27;20003;-38
2022/09/03 10:48:28;;;;;;;;;;;;;;;23.76;46.65;100782.47;5152650;27;19946;-38
2022/09/03 10:50:56;;;;;;;;;;;;;;;23.77;46.67;100778.56;5147371;27;20013;-38
2022/09/03 10:53:32;;;;;;;;;;;;;;;23.77;46.41;100777.72;5133726;27;20010;-38
2022/09/03 10:56:02;;;;;;;;;;;;;;;23.77;46.68;100772.16;5149551;27;20018;-38
2022/09/03 10:58:48;;;;;;;;;;;;;;;23.75;46.53;100783.63;5150483;27;19996;-38
2022/09/03 11:01:17;;;;;;;;;;;;;;;23.77;46.68;100781.34;5137199;27;20018;-38
2022/09/03 11:03:53;;;;;;;;;;;;;;;23.76;46.65;100787.22;5149661;27;19923;-38
2022/09/03 11:06:20;;;;;;;;;;;;;;;23.76;46.70;100784.44;5153533;27;19966;-38
2022/09/03 11:08:47;;;;;;;;;;;;;;;23.75;46.63;100783.63;5132438;27;19970;-38
2022/09/03 11:11:15;;;;;;;;;;;;;;;23.75;46.41;100780.84;5151247;27;20175;-38
2022/09/03 11:13:58;;;;;;;;;;;;;;;23.76;46.68;100776.91;5136216;27;20423;-38
2022/09/03 11:16:27;;;;;;;;;;;;;;;23.76;46.25;100768.56;5130086;27;20013;-38
2022/09/03 11:18:56;;;;;;;;;;;;;;;23.76;46.65;100779.69;5131088;27;20409;-38
2022/09/03 11:21:24;;;;;;;;;;;;;;;23.75;46.65;100778.06;5131121;27;20224;-38
2022/09/03 11:23:51;;;;;;;;;;;;;;;23.75;46.63;100780.84;5131478;27;20005;-38
2022/09/03 11:26:21;;;;;;;;;;;;;;;23.74;46.58;100770.84;5150902;27;20009;-39
2022/09/03 11:28:51;;;;;;;;;;;;;;;23.76;46.73;100773.31;5133846;27;20011;-38
2022/09/03 11:31:37;;;;;;;;;;;;;;;23.76;45.99;100770.53;5151259;27;20057;-38
2022/09/03 11:34:08;;;;;;;;;;;;;;;23.76;46.50;100774.13;5145731;27;19923;-39
2022/09/03 11:36:35;;;;;;;;;;;;;;;23.75;46.55;100768.91;5127952;27;20377;-38
2022/09/03 11:39:11;;;;;;;;;;;;;;;23.74;46.50;100762.50;5132671;27;19966;-40
2022/09/03 11:41:37;;;;;;;;;;;;;;;23.76;46.60;100759.41;5139846;27;20022;-39
2022/09/03 11:44:10;;;;;;;;;;;;;;;23.74;45.80;100761.66;5149350;27;20285;-38
2022/09/03 11:46:38;;;;;;;;;;;;;;;23.75;46.72;100757.78;5130660;27;20148;-38
2022/09/03 11:49:12;;;;;;;;;;;;;;;23.75;46.55;100757.78;5149874;27;19931;-38
2022/09/03 11:51:40;;;;;;;;;;;;;;;23.75;46.70;100758.59;5127447;27;20009;-39
2022/09/03 11:57:05;;;;;;;;;;;;;;;23.75;46.71;100760.56;5168546;27;19933;-38
2022/09/03 11:59:30;;;;;;;;;;;;;;;23.75;46.39;100755.00;5155765;27;20103;-38
2022/09/03 12:01:59;;;;;;;;;;;;;;;23.74;45.19;100745.00;5165018;27;19923;-38
2022/09/03 12:04:28;;;;;;;;;;;;;;;23.75;45.77;100750.25;5154739;27;19939;-38
2022/09/03 12:07:13;;;;;;;;;;;;;;;23.75;46.70;100750.25;5156273;27;19979;-38
2022/09/03 12:10:02;;;;;;;;;;;;;;;23.74;46.75;100743.03;5137695;27;19931;-38
2022/09/03 12:12:48;;;;;;;;;;;;;;;23.74;46.47;100748.59;5138784;27;19977;-38
2022/09/03 12:15:27;;;;;;;;;;;;;;;23.74;46.69;100751.38;5133371;27;20030;-38
2022/09/03 12:18:23;;;;;;;;;;;;;;;23.75;46.78;100743.88;5159633;27;20436;-38
2022/09/03 12:20:40;;;;;;;;;;;;;;;23.74;46.48;100740.25;5149927;27;19973;-38
2022/09/03 12:23:06;;;;;;;;;;;;;;;23.75;46.15;100743.88;5165478;27;19932;-38
2022/09/03 12:25:32;;;;;;;;;;;;;;;23.74;46.77;100745.81;5159003;27;19923;-38
2022/09/03 12:27:59;;;;;;;;;;;;;;;23.75;45.95;100738.31;5155618;27;19985;-38
2022/09/03 12:30:24;;;;;;;;;;;;;;;23.75;46.72;100741.09;5156493;27;20360;-38
2022/09/03 12:32:51;;;;;;;;;;;;;;;23.75;46.69;100730.78;5166096;27;19930;-38
2022/09/03 12:35:19;;;;;;;;;;;;;;;23.74;46.56;100731.09;5159485;27;20056;-38
2022/09/03 12:38:04;;;;;;;;;;;;;;;23.74;46.03;100726.34;5148112;27;19968;-38
2022/09/03 12:40:34;;;;;;;;;;;;;;;23.74;45.81;100731.91;5161093;27;20388;-38
2022/09/03 12:43:15;;;;;;;;;;;;;;;23.75;46.36;100728.00;5154998;27;19931;-39
2022/09/03 12:46:01;;;;;;;;;;;;;;;23.74;46.46;100725.53;5144631;27;19930;-38
2022/09/03 12:48:51;;;;;;;;;;;;;;;23.74;46.57;100720.78;5164037;27;20304;-38
2022/09/03 12:51:37;;;;;;;;;;;;;;;23.74;46.47;100725.53;5142259;27;20150;-38
2022/09/03 12:54:23;;;;;;;;;;;;;;;23.75;46.78;100722.44;5150050;27;19924;-38
2022/09/03 12:56:52;;;;;;;;;;;;;;;23.74;46.52;100719.97;5160948;27;19923;-38